Time;durP1;ratioP1;P1;durP2;ratioP2;P2;SDS_P1;SDS_P2;PMS_P1;PMS_P2;Temp;Humidity;BMP_temperature;BMP_pressure;BME280_temperature;BME280_humidity;BME280_pressure;Samples;Min_cycle;Max_cycle;Signal;HPM_P1;HPM_P2
2022/08/12 00:44:52;;;;;;;2.03;0.88;;;20.20;99.90;;;;;;5053527;28;20088;-73
2022/08/12 00:47:19;;;;;;;1.98;1.02;;;20.20;99.90;;;;;;5053565;28;20452;-74
2022/08/12 00:49:45;;;;;;;5.57;1.05;;;20.10;99.90;;;;;;5053828;28;20171;-72
2022/08/12 00:52:12;;;;;;;3.25;1.30;;;20.10;99.90;;;;;;5053090;28;20489;-73
2022/08/12 00:54:47;;;;;;;1.35;0.65;;;20.10;99.90;;;;;;5053983;28;20044;-74
2022/08/12 00:57:17;;;;;;;1.48;0.95;;;20.00;99.90;;;;;;5052938;28;20052;-73
2022/08/12 00:59:53;;;;;;;3.92;1.33;;;20.00;99.90;;;;;;5053816;28;20036;-74
2022/08/12 01:02:27;;;;;;;1.33;0.65;;;19.90;99.90;;;;;;5035425;28;20424;-73
2022/08/12 01:13:14;;;;;;;1.85;0.80;;;19.90;99.90;;;;;;5053860;28;20072;-73
2022/08/12 01:15:42;;;;;;;0.98;0.80;;;19.80;99.90;;;;;;5052973;28;20018;-73
2022/08/12 01:18:08;;;;;;;6.30;1.20;;;19.80;99.90;;;;;;5053249;28;20029;-73
2022/08/12 01:21:26;;;;;;;1.40;0.80;;;19.70;99.90;;;;;;5035217;28;20026;-72
2022/08/12 01:24:29;;;;;;;2.70;1.20;;;19.70;99.90;;;;;;5016808;28;20037;-74
2022/08/12 01:26:57;;;;;;;2.15;0.93;;;19.70;99.90;;;;;;5053317;28;20025;-72
2022/08/12 01:29:26;;;;;;;2.50;1.05;;;19.60;99.90;;;;;;5052994;28;20021;-73
2022/08/12 01:31:55;;;;;;;4.35;1.42;;;19.70;99.90;;;;;;5053155;28;20021;-72
2022/08/12 01:34:29;;;;;;;2.70;1.15;;;19.70;99.90;;;;;;5053156;28;20047;-73
2022/08/12 01:36:58;;;;;;;1.20;0.98;;;19.60;99.90;;;;;;5034399;28;20044;-73
2022/08/12 01:39:46;;;;;;;16.35;1.02;;;19.60;99.90;;;;;;5053068;28;20492;-74
2022/08/12 01:42:15;;;;;;;0.80;0.70;;;19.60;99.90;;;;;;5052770;28;20018;-72
2022/08/12 01:44:43;;;;;;;1.50;0.82;;;19.50;99.90;;;;;;5053005;28;20108;-73
2022/08/12 01:47:38;;;;;;;1.15;0.80;;;19.50;99.90;;;;;;5035024;28;20029;-72
2022/08/12 01:50:22;;;;;;;2.28;1.13;;;19.40;99.90;;;;;;5052777;28;20025;-72
2022/08/12 01:52:57;;;;;;;2.00;0.88;;;19.40;99.90;;;;;;5052773;28;20477;-74
2022/08/12 01:55:28;;;;;;;1.63;1.08;;;19.40;99.90;;;;;;5051848;28;20026;-72
2022/08/12 01:58:17;;;;;;;3.60;1.25;;;19.30;99.90;;;;;;5052745;28;20071;-72
2022/08/12 02:00:51;;;;;;;1.92;1.17;;;19.30;99.90;;;;;;5053022;28;20025;-74
2022/08/12 02:12:48;;;;;;;2.20;1.17;;;19.00;99.90;;;;;;5032327;28;20049;-73
2022/08/12 02:15:24;;;;;;;5.47;1.20;;;19.00;99.90;;;;;;5031335;28;20513;-75
2022/08/12 02:18:01;;;;;;;3.33;1.10;;;19.00;99.90;;;;;;5032582;28;20034;-73
2022/08/12 02:20:52;;;;;;;3.92;1.55;;;19.00;99.90;;;;;;5031958;28;20026;-72
2022/08/12 02:23:22;;;;;;;0.93;0.70;;;19.00;99.90;;;;;;5031962;28;20124;-72
2022/08/12 02:25:54;;;;;;;2.47;0.90;;;19.00;99.90;;;;;;5032550;28;20473;-74
2022/08/12 02:28:20;;;;;;;1.42;0.82;;;18.90;99.90;;;;;;5032621;28;20044;-73
2022/08/12 02:30:46;;;;;;;4.80;1.35;;;18.80;99.90;;;;;;5030904;28;20022;-74
2022/08/12 02:33:12;;;;;;;3.05;1.33;;;18.90;99.90;;;;;;5032304;28;20049;-74
2022/08/12 02:35:38;;;;;;;1.25;0.73;;;18.80;99.90;;;;;;5032207;28;20025;-74
2022/08/12 02:38:07;;;;;;;7.38;1.02;;;18.80;99.90;;;;;;5031996;28;20025;-73
2022/08/12 02:40:36;;;;;;;1.02;0.77;;;18.60;99.90;;;;;;5032451;28;20018;-73
2022/08/12 02:43:20;;;;;;;3.95;1.15;;;18.70;99.90;;;;;;5030850;28;20548;-72
2022/08/12 02:46:07;;;;;;;1.33;0.80;;;18.70;99.90;;;;;;5032074;28;20025;-73
2022/08/12 02:48:42;;;;;;;6.35;1.30;;;18.70;99.90;;;;;;5031676;28;20022;-73
2022/08/12 02:51:11;;;;;;;4.15;1.52;;;18.60;99.90;;;;;;5032180;28;20029;-74
2022/08/12 02:53:37;;;;;;;1.65;0.85;;;18.60;99.90;;;;;;5031172;28;20018;-73
2022/08/12 02:56:04;;;;;;;1.95;1.10;;;18.60;99.90;;;;;;5032243;28;20030;-73
2022/08/12 02:58:32;;;;;;;1.67;0.80;;;18.60;99.90;;;;;;5031493;28;20033;-74
2022/08/12 03:01:00;;;;;;;13.05;1.10;;;18.50;99.90;;;;;;5031328;28;20502;-73
2022/08/12 03:03:30;;;;;;;1.65;0.95;;;18.50;99.90;;;;;;5031231;28;20033;-74
2022/08/12 03:06:15;;;;;;;26.23;1.25;;;18.60;99.90;;;;;;5047500;28;20535;-74
2022/08/12 03:08:42;;;;;;;1.95;1.20;;;18.50;99.90;;;;;;5051640;28;20029;-74
2022/08/12 03:11:30;;;;;;;1.33;0.88;;;18.40;99.90;;;;;;5051499;28;20048;-73
2022/08/12 03:14:01;;;;;;;1.90;0.75;;;18.40;99.90;;;;;;5051281;28;20029;-73
2022/08/12 03:16:29;;;;;;;1.83;1.17;;;18.30;99.90;;;;;;5051193;28;20124;-74
2022/08/12 03:18:56;;;;;;;2.03;1.38;;;18.30;99.90;;;;;;5051113;28;20026;-73
2022/08/12 03:21:23;;;;;;;4.63;1.05;;;18.30;99.90;;;;;;5032595;28;20024;-72
2022/08/12 03:23:52;;;;;;;1.88;1.20;;;18.40;99.90;;;;;;5032936;28;20022;-73
2022/08/12 03:26:24;;;;;;;1.90;1.05;;;18.30;99.90;;;;;;5050541;28;20033;-72
2022/08/12 03:28:56;;;;;;;2.90;1.30;;;18.20;99.90;;;;;;5050987;28;20363;-73
2022/08/12 03:31:24;;;;;;;1.73;0.90;;;18.20;99.90;;;;;;5050930;28;20075;-74
2022/08/12 03:33:51;;;;;;;2.10;1.00;;;18.20;99.90;;;;;;5050347;28;20025;-74
2022/08/12 03:36:20;;;;;;;1.20;1.10;;;18.10;99.90;;;;;;5032722;28;20063;-73
2022/08/12 03:39:00;;;;;;;2.08;1.00;;;18.10;99.90;;;;;;5033361;28;20025;-76
2022/08/12 03:41:34;;;;;;;1.20;0.93;;;18.10;99.90;;;;;;5051044;28;20021;-73
2022/08/12 04:00:47;;;;;;;2.80;1.52;;;17.80;99.90;;;;;;5051061;28;20056;-72
2022/08/12 04:05:57;;;;;;;4.43;1.85;;;17.80;99.90;;;;;;5050807;28;20119;-73
2022/08/12 04:08:25;;;;;;;3.75;1.42;;;17.60;99.90;;;;;;5050903;28;20026;-73
2022/08/12 04:13:36;;;;;;;2.15;1.35;;;17.70;99.90;;;;;;5050724;28;20036;-72
2022/08/12 04:16:03;;;;;;;2.70;1.55;;;17.70;99.90;;;;;;5050655;28;20045;-74
2022/08/12 04:18:29;;;;;;;1.75;1.23;;;17.70;99.90;;;;;;5035231;28;20417;-73
2022/08/12 04:20:55;;;;;;;12.00;1.38;;;17.70;99.90;;;;;;5036475;28;20029;-73
2022/08/12 04:23:22;;;;;;;1.63;1.00;;;17.70;99.90;;;;;;5054057;28;20021;-73
2022/08/12 04:25:48;;;;;;;5.45;2.17;;;17.80;99.90;;;;;;5054094;28;20032;-73
2022/08/12 04:28:13;;;;;;;1.20;1.10;;;17.70;99.90;;;;;;5054599;28;20108;-72
2022/08/12 04:30:39;;;;;;;3.10;1.23;;;17.70;99.90;;;;;;5054525;28;20025;-74
2022/08/12 04:33:11;;;;;;;3.25;1.83;;;17.70;99.90;;;;;;5054953;28;20856;-73
2022/08/12 04:35:37;;;;;;;5.13;1.15;;;17.60;99.90;;;;;;5054069;28;20025;-72
2022/08/12 04:38:04;;;;;;;2.58;1.10;;;17.70;99.90;;;;;;5036125;28;20017;-72
2022/08/12 04:40:32;;;;;;;3.05;1.45;;;17.60;99.90;;;;;;5053970;28;20109;-72
2022/08/12 04:43:01;;;;;;;2.20;1.55;;;17.70;99.90;;;;;;5053731;28;20033;-72
2022/08/12 04:45:27;;;;;;;2.10;1.25;;;17.60;99.90;;;;;;5053628;28;20025;-74
2022/08/12 04:47:53;;;;;;;1.88;1.30;;;17.70;99.90;;;;;;5036104;28;20420;-73
2022/08/12 04:50:19;;;;;;;1.85;1.25;;;17.70;99.90;;;;;;5035900;28;20033;-73
2022/08/12 04:52:44;;;;;;;2.50;1.58;;;17.70;99.90;;;;;;5053083;28;20025;-73
2022/08/12 04:55:13;;;;;;;4.07;1.38;;;17.60;99.90;;;;;;5054185;28;20034;-73
2022/08/12 04:57:39;;;;;;;1.92;1.05;;;17.60;99.90;;;;;;5053868;28;20032;-73
2022/08/12 05:00:12;;;;;;;1.38;1.08;;;17.60;99.90;;;;;;5054029;28;20025;-74
2022/08/12 05:02:39;;;;;;;3.47;1.42;;;17.70;99.90;;;;;;5053951;28;20037;-75
2022/08/12 05:05:07;;;;;;;1.58;1.02;;;17.60;99.90;;;;;;5053731;28;20049;-73
2022/08/12 05:07:33;;;;;;;0.93;0.73;;;17.70;99.90;;;;;;5053021;28;20044;-74
2022/08/12 05:09:58;;;;;;;1.73;1.10;;;17.80;99.90;;;;;;5053952;28;20029;-74
2022/08/12 05:12:27;;;;;;;3.03;1.30;;;17.90;99.90;;;;;;5053087;28;20040;-74
2022/08/12 05:14:52;;;;;;;3.97;1.65;;;17.80;99.90;;;;;;5053090;28;20116;-74
2022/08/12 05:17:18;;;;;;;2.58;1.48;;;17.80;99.90;;;;;;5053597;28;20080;-73
2022/08/12 05:19:43;;;;;;;1.88;1.00;;;17.90;99.90;;;;;;5049626;28;20025;-73
2022/08/12 05:22:09;;;;;;;3.05;1.10;;;18.00;99.90;;;;;;5053100;28;20021;-74
2022/08/12 05:24:35;;;;;;;2.38;1.35;;;18.00;99.90;;;;;;5053989;28;20044;-74
2022/08/12 05:27:01;;;;;;;2.03;1.20;;;18.10;99.90;;;;;;5053412;28;20032;-74
2022/08/12 05:29:28;;;;;;;1.73;1.25;;;18.00;99.90;;;;;;5049838;28;20029;-73
2022/08/12 05:31:55;;;;;;;2.50;1.13;;;18.10;99.90;;;;;;5052728;28;20021;-74
2022/08/12 05:34:21;;;;;;;2.20;0.85;;;18.10;99.90;;;;;;5052289;28;20504;-74
2022/08/12 05:36:47;;;;;;;1.52;0.90;;;18.10;99.90;;;;;;5052624;28;20087;-74
2022/08/12 05:39:12;;;;;;;2.15;1.40;;;18.20;99.90;;;;;;5051037;28;20025;-76
2022/08/12 05:41:40;;;;;;;1.98;1.30;;;18.20;99.90;;;;;;5052806;28;20017;-74
2022/08/12 05:44:07;;;;;;;2.58;1.10;;;18.20;99.90;;;;;;5052632;28;20041;-75
2022/08/12 05:46:34;;;;;;;2.30;1.42;;;18.40;99.90;;;;;;5051948;28;20030;-75
2022/08/12 05:49:00;;;;;;;3.00;1.52;;;18.50;99.90;;;;;;5051871;28;20041;-74
2022/08/12 05:51:30;;;;;;;2.13;1.15;;;18.40;99.90;;;;;;5052891;28;20028;-75
2022/08/12 05:53:57;;;;;;;2.33;1.52;;;18.50;99.90;;;;;;5047604;28;20044;-75
2022/08/12 05:56:28;;;;;;;2.78;1.10;;;18.60;99.90;;;;;;5051639;28;20033;-75
2022/08/12 05:58:55;;;;;;;2.10;1.23;;;18.60;99.90;;;;;;5050309;28;20033;-75
2022/08/12 06:01:23;;;;;;;7.50;1.27;;;18.70;99.90;;;;;;5038326;28;20020;-76
2022/08/12 06:03:49;;;;;;;1.60;1.23;;;18.60;99.90;;;;;;5040531;28;20025;-75
2022/08/12 06:06:16;;;;;;;2.90;1.63;;;18.80;99.90;;;;;;5052764;28;20076;-76
2022/08/12 06:08:47;;;;;;;1.90;1.60;;;18.80;99.90;;;;;;5051317;28;20080;-75
2022/08/12 06:11:14;;;;;;;2.22;1.42;;;18.90;99.90;;;;;;5049385;28;20040;-75
2022/08/12 06:13:41;;;;;;;3.97;1.30;;;19.00;99.90;;;;;;5030578;28;20029;-75
2022/08/12 06:16:08;;;;;;;5.45;1.02;;;19.10;99.90;;;;;;5050352;28;20050;-75
2022/08/12 06:18:38;;;;;;;8.48;1.17;;;19.10;99.90;;;;;;5032898;28;20033;-73
2022/08/12 06:21:06;;;;;;;3.03;1.05;;;19.20;99.90;;;;;;5049846;28;20112;-74
2022/08/12 06:23:32;;;;;;;9.15;1.65;;;19.20;99.90;;;;;;5051502;28;20041;-76
2022/08/12 06:25:58;;;;;;;2.55;1.65;;;19.30;99.90;;;;;;5034008;28;20026;-76
2022/08/12 06:28:24;;;;;;;4.13;1.33;;;19.30;99.90;;;;;;5046956;28;20113;-74
2022/08/12 06:30:51;;;;;;;3.55;1.50;;;19.40;99.90;;;;;;5044924;28;20097;-74
2022/08/12 06:33:17;;;;;;;2.30;1.27;;;19.50;99.90;;;;;;5032407;28;20048;-74
2022/08/12 06:35:43;;;;;;;3.47;1.42;;;19.50;99.90;;;;;;5052110;28;20147;-75
2022/08/12 06:38:20;;;;;;;2.42;1.48;;;19.60;99.90;;;;;;5051504;28;20423;-76
2022/08/12 06:43:33;;;;;;;1.88;1.08;;;19.70;99.90;;;;;;5050481;28;20061;-76
2022/08/12 06:45:59;;;;;;;3.50;1.33;;;19.70;99.90;;;;;;5050759;28;20045;-74
2022/08/12 06:48:28;;;;;;;1.80;1.08;;;19.80;99.90;;;;;;5030390;28;20044;-75
2022/08/12 06:50:58;;;;;;;2.22;1.15;;;19.90;99.90;;;;;;5031395;28;20030;-74
2022/08/12 06:53:25;;;;;;;1.65;1.17;;;20.00;99.90;;;;;;5048896;28;20057;-75
2022/08/12 06:55:56;;;;;;;1.67;1.35;;;20.10;99.90;;;;;;5050215;28;20045;-75
2022/08/12 06:58:23;;;;;;;2.10;0.95;;;20.10;99.90;;;;;;5047682;28;20030;-76
2022/08/12 07:00:49;;;;;;;1.38;0.90;;;20.10;99.90;;;;;;5031148;28;20080;-74
2022/08/12 07:03:24;;;;;;;2.22;1.52;;;20.30;99.90;;;;;;5049759;28;20025;-74
2022/08/12 07:05:50;;;;;;;1.65;1.00;;;20.40;99.90;;;;;;5049744;28;20132;-74
2022/08/12 07:08:17;;;;;;;5.28;1.20;;;20.30;99.90;;;;;;5051536;28;20021;-75
2022/08/12 07:11:04;;;;;;;2.15;1.08;;;20.50;99.90;;;;;;5049885;28;20029;-74
2022/08/12 07:13:37;;;;;;;1.92;1.35;;;20.60;99.90;;;;;;5050640;28;20079;-75
2022/08/12 07:16:03;;;;;;;2.00;1.27;;;20.70;99.90;;;;;;5050775;28;20056;-74
2022/08/12 07:18:31;;;;;;;1.80;1.15;;;20.80;99.90;;;;;;5033692;28;20131;-74
2022/08/12 07:20:59;;;;;;;1.85;1.35;;;20.90;99.90;;;;;;5049072;28;20074;-75
2022/08/12 07:23:26;;;;;;;3.53;1.40;;;20.90;99.90;;;;;;5050672;28;20024;-77
2022/08/12 07:25:53;;;;;;;3.00;1.40;;;20.90;99.90;;;;;;5051101;28;20017;-75
2022/08/12 07:28:24;;;;;;;3.15;1.90;;;21.10;99.90;;;;;;5050606;28;20088;-75
2022/08/12 07:30:52;;;;;;;1.80;1.15;;;21.20;99.90;;;;;;5033053;28;20485;-76
2022/08/12 07:33:21;;;;;;;2.55;1.60;;;21.20;99.90;;;;;;5050487;28;20117;-75
2022/08/12 07:35:48;;;;;;;1.30;1.05;;;21.30;99.90;;;;;;5033168;28;20036;-75
2022/08/12 07:38:29;;;;;;;2.75;1.48;;;21.40;99.90;;;;;;5050747;28;20552;-74
2022/08/12 07:41:06;;;;;;;3.75;1.33;;;21.40;99.90;;;;;;5049846;28;20056;-75
2022/08/12 07:43:35;;;;;;;1.70;1.10;;;21.60;99.90;;;;;;5033214;28;20049;-74
2022/08/12 07:46:03;;;;;;;2.38;1.30;;;21.70;99.90;;;;;;5051254;28;20074;-76
2022/08/12 07:48:39;;;;;;;1.30;0.95;;;21.70;99.90;;;;;;5050277;28;20017;-74
2022/08/12 07:51:06;;;;;;;2.78;1.42;;;21.80;99.90;;;;;;5032972;28;20043;-76
2022/08/12 07:53:32;;;;;;;3.03;1.13;;;21.90;99.90;;;;;;5036406;28;20064;-76
2022/08/12 07:55:58;;;;;;;13.80;1.50;;;22.10;99.90;;;;;;5036851;28;20025;-75
2022/08/12 07:58:25;;;;;;;1.48;1.38;;;22.10;99.90;;;;;;5036701;28;20413;-74
2022/08/12 08:00:51;;;;;;;2.38;1.13;;;22.20;99.90;;;;;;5021451;28;20025;-75
2022/08/12 08:03:17;;;;;;;2.72;1.20;;;22.30;99.90;;;;;;5053785;28;20093;-75
2022/08/12 08:05:45;;;;;;;2.50;1.10;;;22.40;99.90;;;;;;5054587;28;20409;-75
2022/08/12 08:08:17;;;;;;;3.20;1.55;;;22.50;99.90;;;;;;5054162;28;20514;-75
2022/08/12 08:10:43;;;;;;;2.20;1.35;;;22.60;99.90;;;;;;5053425;28;20037;-74
2022/08/12 08:13:11;;;;;;;2.85;1.42;;;22.50;99.90;;;;;;5054860;28;20025;-74
2022/08/12 08:15:38;;;;;;;1.88;1.40;;;22.60;99.90;;;;;;5036145;28;20026;-74
2022/08/12 08:18:06;;;;;;;2.30;1.13;;;22.70;99.90;;;;;;5035609;28;20029;-74
2022/08/12 08:20:34;;;;;;;10.02;1.48;;;22.80;99.90;;;;;;5052824;28;20029;-75
2022/08/12 08:23:06;;;;;;;3.40;1.42;;;22.90;99.90;;;;;;5054014;28;20026;-75
2022/08/12 08:25:34;;;;;;;2.05;1.50;;;23.00;99.90;;;;;;5054174;28;20025;-75
2022/08/12 08:28:15;;;;;;;2.63;1.25;;;23.10;99.90;;;;;;5034821;28;20037;-75
2022/08/12 08:30:45;;;;;;;2.53;1.27;;;23.30;99.90;;;;;;5051112;28;20029;-76
2022/08/12 08:33:13;;;;;;;2.53;1.70;;;23.40;99.90;;;;;;5051847;28;20036;-76
2022/08/12 08:35:40;;;;;;;6.50;1.58;;;23.50;99.90;;;;;;5053894;28;20021;-74
2022/08/12 08:38:12;;;;;;;1.30;1.10;;;23.60;99.90;;;;;;5053386;28;20120;-75
2022/08/12 08:43:24;;;;;;;2.22;1.63;;;24.00;99.90;;;;;;5053316;28;20040;-76
2022/08/12 08:45:50;;;;;;;1.38;0.90;;;24.10;99.90;;;;;;5052146;28;20116;-75
2022/08/12 08:48:16;;;;;;;3.53;1.15;;;24.30;99.90;;;;;;5031934;28;20040;-76
2022/08/12 08:50:43;;;;;;;2.90;1.20;;;24.50;99.90;;;;;;5048675;28;20028;-75
2022/08/12 08:53:10;;;;;;;2.85;1.20;;;24.70;99.90;;;;;;5054156;28;20604;-77
2022/08/12 08:55:35;;;;;;;9.48;1.25;;;24.80;99.90;;;;;;5046796;28;20024;-76
2022/08/12 08:58:01;;;;;;;14.40;1.83;;;24.90;99.90;;;;;;5054359;28;20040;-74
2022/08/12 09:00:29;;;;;;;2.05;1.33;;;25.00;99.90;;;;;;5039948;28;20028;-76
2022/08/12 09:02:54;;;;;;;1.48;0.75;;;25.20;99.90;;;;;;5042074;28;20029;-74
2022/08/12 09:05:20;;;;;;;2.78;1.45;;;25.20;99.90;;;;;;5032839;28;20607;-75
2022/08/12 09:07:47;;;;;;;2.97;1.25;;;25.30;99.90;;;;;;5050582;28;20017;-77
2022/08/12 09:10:18;;;;;;;1.83;1.40;;;25.30;99.90;;;;;;5051518;28;20089;-75
2022/08/12 09:15:30;;;;;;;8.40;1.73;;;25.50;99.90;;;;;;5052439;28;20040;-73
2022/08/12 09:17:58;;;;;;;1.65;1.23;;;25.60;99.90;;;;;;5048909;28;20097;-75
2022/08/12 09:20:32;;;;;;;2.80;1.27;;;25.60;99.90;;;;;;5051572;28;20029;-74
2022/08/12 09:23:00;;;;;;;2.38;1.23;;;25.70;99.90;;;;;;5035734;28;20030;-74
2022/08/12 09:25:26;;;;;;;2.15;1.25;;;25.70;99.90;;;;;;5052730;28;20081;-75
2022/08/12 09:27:53;;;;;;;7.55;1.35;;;25.80;99.90;;;;;;5052073;28;20029;-73
2022/08/12 09:30:20;;;;;;;2.00;1.15;;;25.90;99.90;;;;;;5052980;28;20041;-74
2022/08/12 09:32:50;;;;;;;1.75;1.27;;;26.00;99.90;;;;;;5050517;28;20033;-76
2022/08/12 09:35:27;;;;;;;2.10;1.35;;;26.10;99.90;;;;;;5046446;28;20132;-74
2022/08/12 09:37:54;;;;;;;1.38;0.93;;;26.20;99.90;;;;;;5050341;28;20052;-74
2022/08/12 09:40:22;;;;;;;4.45;1.35;;;26.20;99.90;;;;;;5048335;28;20029;-72
2022/08/12 09:45:33;;;;;;;3.60;2.10;;;26.40;99.90;;;;;;5053114;28;20067;-73
2022/08/12 09:48:05;;;;;;;4.63;2.10;;;26.60;99.90;;;;;;5051797;28;20029;-72
2022/08/12 09:50:31;;;;;;;3.38;1.55;;;26.70;99.90;;;;;;5052782;28;20021;-74
2022/08/12 09:53:04;;;;;;;1.73;1.20;;;26.80;99.90;;;;;;5052721;28;20049;-74
2022/08/12 09:55:31;;;;;;;1.77;1.00;;;26.80;99.90;;;;;;5033796;28;20131;-73
2022/08/12 09:57:57;;;;;;;9.50;1.60;;;26.90;99.90;;;;;;5052628;28;20060;-75
2022/08/12 10:00:24;;;;;;;1.95;1.23;;;27.00;99.90;;;;;;5049767;28;20021;-76
2022/08/12 10:03:09;;;;;;;13.75;1.33;;;27.00;99.90;;;;;;5050835;28;20048;-73
2022/08/12 10:05:40;;;;;;;1.48;1.13;;;27.10;99.90;;;;;;5032611;28;20041;-73
2022/08/12 10:08:09;;;;;;;3.58;1.65;;;27.20;99.90;;;;;;5051249;28;20033;-74
2022/08/12 10:13:42;;;;;;;18.83;1.75;;;27.50;99.90;;;;;;5052134;28;20040;-73
2022/08/12 10:16:12;;;;;;;1.83;1.17;;;27.70;99.90;;;;;;5051165;28;21947;-74
2022/08/12 10:18:41;;;;;;;1.42;1.00;;;27.70;99.90;;;;;;5049358;28;20044;-73
2022/08/12 10:21:09;;;;;;;1.23;0.80;;;27.80;99.90;;;;;;5051534;28;20032;-73
2022/08/12 10:23:37;;;;;;;1.58;1.23;;;27.80;99.90;;;;;;5034185;28;20025;-74
2022/08/12 10:31:31;;;;;;;3.10;0.88;;;28.20;99.90;;;;;;5051718;28;20035;-72
2022/08/12 10:33:57;;;;;;;11.13;1.15;;;28.30;99.90;;;;;;5032008;28;20463;-72
2022/08/12 10:36:23;;;;;;;3.20;1.10;;;28.30;99.90;;;;;;5049183;28;20382;-72
2022/08/12 10:38:53;;;;;;;1.10;0.85;;;28.40;99.90;;;;;;5050122;28;20025;-73
2022/08/12 10:44:12;;;;;;;1.52;1.10;;;28.70;99.90;;;;;;5051619;28;20028;-72
2022/08/12 10:46:38;;;;;;;2.17;0.75;;;28.70;99.90;;;;;;5034218;28;20032;-72
2022/08/12 10:49:06;;;;;;;1.92;1.02;;;28.80;99.90;;;;;;5051641;28;21341;-74
2022/08/12 10:51:32;;;;;;;1.65;1.05;;;28.90;99.90;;;;;;5045798;28;20044;-74
2022/08/12 10:53:58;;;;;;;1.73;0.80;;;29.00;99.90;;;;;;5050200;28;20057;-73
2022/08/12 10:56:24;;;;;;;2.08;1.05;;;29.00;99.90;;;;;;5032871;28;20037;-72
2022/08/12 10:58:54;;;;;;;1.10;0.80;;;29.20;99.90;;;;;;5047770;28;20526;-73
2022/08/12 11:01:20;;;;;;;4.65;0.80;;;29.30;99.90;;;;;;5050697;28;20082;-73
2022/08/12 11:03:45;;;;;;;1.98;0.90;;;29.40;99.90;;;;;;5032846;28;20397;-74
2022/08/12 11:06:13;;;;;;;1.52;0.88;;;29.40;99.90;;;;;;5032897;28;20045;-72
2022/08/12 11:08:40;;;;;;;0.70;0.63;;;29.40;99.90;;;;;;5050598;28;20099;-75
2022/08/12 11:11:07;;;;;;;2.78;1.00;;;29.50;99.90;;;;;;5049572;28;20017;-72
2022/08/12 11:13:36;;;;;;;11.02;0.88;;;29.60;99.90;;;;;;5050470;28;20045;-72
2022/08/12 11:16:05;;;;;;;1.58;0.77;;;29.60;98.60;;;;;;5031474;28;20026;-73
2022/08/12 11:18:31;;;;;;;0.77;0.55;;;29.70;98.20;;;;;;5032243;28;20052;-73
2022/08/12 11:20:58;;;;;;;0.50;0.50;;;29.90;98.50;;;;;;5032769;28;20074;-73
2022/08/12 11:23:24;;;;;;;1.17;0.73;;;30.00;98.60;;;;;;5049030;28;20508;-73
2022/08/12 11:25:50;;;;;;;1.00;0.57;;;30.20;97.20;;;;;;5049608;28;20064;-75
2022/08/12 11:28:16;;;;;;;1.20;0.80;;;30.30;97.40;;;;;;5032831;28;20075;-73
2022/08/12 11:30:42;;;;;;;1.98;0.93;;;30.30;96.90;;;;;;5054695;28;20077;-74
2022/08/12 11:33:09;;;;;;;2.15;0.60;;;30.40;96.70;;;;;;5054540;28;20060;-73
2022/08/12 11:35:40;;;;;;;1.40;0.95;;;30.40;96.50;;;;;;5054750;28;20102;-71
2022/08/12 11:38:06;;;;;;;1.52;0.90;;;30.50;96.10;;;;;;5052746;28;20125;-73
2022/08/12 11:40:31;;;;;;;1.98;0.85;;;30.50;96.00;;;;;;5046665;28;20469;-74
2022/08/12 11:42:59;;;;;;;3.10;1.00;;;30.60;96.50;;;;;;5052492;28;20033;-73
2022/08/12 11:45:25;;;;;;;4.70;1.10;;;30.80;96.30;;;;;;5050851;28;20183;-73
2022/08/12 11:47:53;;;;;;;9.23;1.42;;;30.90;96.50;;;;;;5053017;28;20025;-73
2022/08/12 11:50:19;;;;;;;1.17;0.85;;;31.10;96.40;;;;;;5052202;28;20035;-74
2022/08/12 11:52:46;;;;;;;8.20;0.82;;;31.20;96.40;;;;;;5054866;28;20107;-73
2022/08/12 11:55:12;;;;;;;1.00;0.70;;;31.30;95.70;;;;;;5055141;28;20063;-73
2022/08/12 11:57:54;;;;;;;1.10;0.70;;;31.50;95.90;;;;;;5054700;28;20069;-73
2022/08/12 12:00:21;;;;;;;0.95;0.70;;;31.70;94.10;;;;;;5054658;28;20022;-73
2022/08/12 12:02:47;;;;;;;1.85;1.20;;;31.80;95.70;;;;;;5053615;28;20502;-73
2022/08/12 12:05:14;;;;;;;0.55;0.50;;;32.00;95.20;;;;;;5053885;28;20045;-74
2022/08/12 12:07:41;;;;;;;0.90;0.75;;;32.10;94.40;;;;;;5053065;28;20486;-73
2022/08/12 12:10:07;;;;;;;0.77;0.52;;;32.20;94.10;;;;;;5035187;28;20424;-72
2022/08/12 12:12:33;;;;;;;0.77;0.60;;;32.30;93.70;;;;;;5054919;28;20051;-73
2022/08/12 12:14:59;;;;;;;1.40;0.82;;;32.40;93.70;;;;;;5054846;28;20033;-71
2022/08/12 12:17:25;;;;;;;0.98;0.80;;;32.50;93.00;;;;;;5035952;28;20029;-74
2022/08/12 12:19:52;;;;;;;1.38;0.80;;;32.50;91.70;;;;;;5054142;28;20030;-72
2022/08/12 12:22:18;;;;;;;1.63;0.77;;;32.40;91.40;;;;;;5054497;28;20016;-72
2022/08/12 12:24:46;;;;;;;0.88;0.73;;;32.40;91.30;;;;;;5053923;28;20049;-73
2022/08/12 12:27:11;;;;;;;10.10;1.30;;;32.40;91.30;;;;;;5054417;28;20086;-73
2022/08/12 12:29:37;;;;;;;4.00;1.00;;;32.50;91.40;;;;;;5054563;28;20028;-73
2022/08/12 12:32:03;;;;;;;2.42;1.13;;;32.60;91.40;;;;;;5054189;28;20056;-71
2022/08/12 12:34:29;;;;;;;0.47;0.40;;;32.80;91.20;;;;;;5054217;28;20390;-72
2022/08/12 12:36:54;;;;;;;1.25;0.60;;;32.90;91.10;;;;;;5054161;28;20059;-73
2022/08/12 12:39:20;;;;;;;3.63;1.20;;;33.20;91.20;;;;;;5052675;28;20424;-73
2022/08/12 12:41:45;;;;;;;1.25;0.75;;;33.30;91.20;;;;;;5054521;28;20032;-74
2022/08/12 12:44:11;;;;;;;1.10;0.88;;;33.50;91.20;;;;;;5054467;28;20030;-73
2022/08/12 12:46:36;;;;;;;0.60;0.43;;;33.80;91.30;;;;;;5053923;28;20045;-71
2022/08/12 12:49:02;;;;;;;1.73;1.00;;;33.90;90.50;;;;;;5053229;28;20030;-73
2022/08/12 12:51:28;;;;;;;1.75;0.80;;;34.00;90.20;;;;;;5053977;28;20037;-72
2022/08/12 12:53:54;;;;;;;2.50;0.90;;;34.10;90.40;;;;;;5053727;28;20025;-73
2022/08/12 12:56:22;;;;;;;1.52;0.70;;;34.20;90.50;;;;;;5053544;28;20073;-74
2022/08/12 12:58:50;;;;;;;1.13;0.70;;;34.40;89.50;;;;;;5052905;28;20068;-74
2022/08/12 13:01:26;;;;;;;1.00;0.55;;;34.50;89.50;;;;;;5053550;28;20024;-73
2022/08/12 13:03:55;;;;;;;0.50;0.50;;;34.60;89.80;;;;;;5053764;28;20021;-72
2022/08/12 13:06:28;;;;;;;0.52;0.52;;;34.70;88.30;;;;;;5053517;28;20059;-72
2022/08/12 13:08:58;;;;;;;0.80;0.50;;;34.80;87.90;;;;;;5051730;28;20052;-73
2022/08/12 13:11:24;;;;;;;0.70;0.57;;;34.80;87.40;;;;;;5053414;28;20469;-72
2022/08/12 13:13:52;;;;;;;0.82;0.60;;;34.80;86.90;;;;;;5050612;28;20056;-73
2022/08/12 13:16:20;;;;;;;0.57;0.55;;;34.90;86.00;;;;;;5050935;28;20037;-72
2022/08/12 13:18:51;;;;;;;1.23;0.75;;;35.00;86.30;;;;;;5052573;28;20037;-73
2022/08/12 13:21:17;;;;;;;1.25;0.90;;;35.00;84.60;;;;;;5053427;28;20507;-73
2022/08/12 13:23:48;;;;;;;0.93;0.73;;;35.00;85.20;;;;;;5053467;28;20053;-73
2022/08/12 13:26:16;;;;;;;4.00;0.80;;;35.10;84.50;;;;;;5053398;28;20033;-74
2022/08/12 13:28:52;;;;;;;1.70;0.68;;;35.10;82.50;;;;;;5053143;28;20142;-73
2022/08/12 13:31:18;;;;;;;1.70;0.70;;;35.10;83.00;;;;;;5053149;28;20025;-73
2022/08/12 13:33:45;;;;;;;1.10;0.70;;;35.10;83.70;;;;;;5053372;28;20018;-73
2022/08/12 13:36:10;;;;;;;1.00;0.57;;;35.30;83.70;;;;;;5052391;28;20021;-73
2022/08/12 13:38:45;;;;;;;1.27;0.63;;;35.50;83.60;;;;;;5053332;28;20393;-73
2022/08/12 13:41:34;;;;;;;0.77;0.57;;;35.60;82.80;;;;;;5053035;28;20051;-73
2022/08/12 13:44:02;;;;;;;0.98;0.63;;;35.70;82.20;;;;;;5033331;28;20031;-72
2022/08/12 13:46:28;;;;;;;0.35;0.32;;;35.80;80.90;;;;;;5052638;28;20025;-73
2022/08/12 13:48:55;;;;;;;1.48;0.65;;;35.80;79.40;;;;;;5052533;28;20485;-71
2022/08/12 13:51:21;;;;;;;0.57;0.50;;;35.80;80.30;;;;;;5051276;28;20025;-73
2022/08/12 13:53:47;;;;;;;0.73;0.65;;;36.00;81.10;;;;;;5053143;28;20433;-72
2022/08/12 13:56:13;;;;;;;1.05;0.73;;;36.20;81.50;;;;;;5052628;28;20029;-73
2022/08/12 13:58:43;;;;;;;1.58;0.73;;;36.40;81.50;;;;;;5052854;28;20663;-74
2022/08/12 14:01:09;;;;;;;0.65;0.60;;;36.60;82.10;;;;;;5034977;28;20384;-72
2022/08/12 14:03:36;;;;;;;1.20;0.80;;;36.70;81.60;;;;;;5051723;28;20043;-73
2022/08/12 14:06:03;;;;;;;0.95;0.70;;;36.90;81.30;;;;;;5051841;28;20049;-72
2022/08/12 14:08:29;;;;;;;1.40;0.93;;;37.00;81.40;;;;;;5052435;28;20021;-74
2022/08/12 14:10:55;;;;;;;0.60;0.50;;;37.20;81.60;;;;;;5052440;28;20025;-74
2022/08/12 14:13:27;;;;;;;3.20;0.73;;;37.50;81.30;;;;;;5052678;28;20108;-72
2022/08/12 14:15:56;;;;;;;1.15;0.50;;;37.70;79.00;;;;;;5052440;28;20033;-71
2022/08/12 14:18:23;;;;;;;0.98;0.47;;;37.70;79.60;;;;;;5033422;28;20057;-71
2022/08/12 14:20:57;;;;;;;0.80;0.63;;;37.90;79.40;;;;;;5052001;28;20021;-72
2022/08/12 14:23:24;;;;;;;;;;;38.00;78.80;;;;;;5051769;28;20039;-71
2022/08/12 14:25:50;;;;;;;1.35;0.63;;;38.20;72.10;;;;;;5049501;28;19911;-71
2022/08/12 14:28:18;;;;;;;0.60;0.50;;;38.30;80.00;;;;;;5051403;28;20370;-73
2022/08/12 14:30:52;;;;;;;1.70;0.82;;;38.50;78.40;;;;;;5049459;28;20028;-71
2022/08/12 14:33:25;;;;;;;0.80;0.80;;;38.70;76.90;;;;;;5051339;28;20045;-72
2022/08/12 14:35:52;;;;;;;1.08;0.80;;;38.90;76.50;;;;;;5050649;28;20079;-71
2022/08/12 14:38:27;;;;;;;2.83;0.82;;;39.10;77.00;;;;;;5051025;28;20456;-71
2022/08/12 14:40:58;;;;;;;3.53;0.80;;;39.20;74.20;;;;;;5049279;28;20021;-71